createdAt,value
2018-03-31T00:00:04.045Z,92240.77
2018-03-31T00:02:34.505Z,92236.57
2018-03-31T00:05:08.085Z,92240.66
2018-03-31T00:07:36.558Z,92248.08
2018-03-31T00:10:04.868Z,92239.68
2018-03-31T00:12:35.195Z,92239.36
2018-03-31T00:15:05.855Z,92236.89
2018-03-31T00:17:34.201Z,92238.89
2018-03-31T00:20:02.563Z,92245.58
2018-03-31T00:22:32.551Z,92248.87
2018-03-31T00:25:00.913Z,92256.86
2018-03-31T00:27:29.273Z,92253.67
2018-03-31T00:29:57.580Z,92247.08
2018-03-31T00:32:25.932Z,92247.08
2018-03-31T00:34:56.390Z,92240.88
2018-03-31T00:37:32.429Z,92239.69
2018-03-31T00:40:00.771Z,92234.47
2018-03-31T00:42:29.141Z,92238.47
2018-03-31T00:44:57.511Z,92237.28
2018-03-31T00:47:25.861Z,92232.89
2018-03-31T00:49:54.212Z,92224.19
2018-03-31T00:52:22.620Z,92226.30
2018-03-31T00:54:52.105Z,92237.08
2018-03-31T00:57:20.481Z,92238.38
2018-03-31T00:59:48.780Z,92227.30
2018-03-31T01:02:19.237Z,92233.67
2018-03-31T01:04:47.552Z,92234.27
2018-03-31T01:07:16.074Z,92234.47
2018-03-31T01:09:44.458Z,92236.27
2018-03-31T01:12:12.861Z,92239.45
2018-03-31T01:14:41.320Z,92239.47
2018-03-31T01:17:10.034Z,92239.67
2018-03-31T01:19:38.462Z,92243.16
2018-03-31T01:22:06.756Z,92240.35
2018-03-31T01:24:35.191Z,92233.08
2018-03-31T01:27:03.625Z,92227.06
2018-03-31T01:29:34.158Z,92225.88
2018-03-31T01:32:04.077Z,92227.37
2018-03-31T01:34:32.421Z,92220.09
2018-03-31T01:37:00.850Z,92221.88
2018-03-31T01:39:29.163Z,92218.69
2018-03-31T01:41:59.061Z,92215.98
2018-03-31T01:44:27.424Z,92219.08
2018-03-31T01:46:57.908Z,92218.20
2018-03-31T01:49:27.725Z,92218.27
2018-03-31T01:51:56.224Z,92210.80
2018-03-31T01:54:26.232Z,92213.38
2018-03-31T01:56:58.042Z,92206.30
2018-03-31T01:59:26.441Z,92201.31
2018-03-31T02:01:54.801Z,92201.98
2018-03-31T02:04:24.719Z,92200.09
2018-03-31T02:06:55.119Z,92195.98
2018-03-31T02:09:25.415Z,92199.50
2018-03-31T02:11:55.789Z,92196.30
2018-03-31T02:14:25.660Z,92194.20
2018-03-31T02:16:54.042Z,92191.19
2018-03-31T02:19:24.369Z,92191.52
2018-03-31T02:21:52.842Z,92185.69
2018-03-31T02:24:21.182Z,92185.90
2018-03-31T02:26:49.580Z,92181.31
2018-03-31T02:29:20.100Z,92174.42
2018-03-31T02:31:51.905Z,92174.52
2018-03-31T02:34:20.250Z,92166.42
2018-03-31T02:36:48.691Z,92169.32
2018-03-31T02:39:18.481Z,92161.14
2018-03-31T02:41:48.801Z,92160.13
2018-03-31T02:44:17.097Z,92158.13
2018-03-31T02:46:47.415Z,92156.94
2018-03-31T02:49:15.734Z,92157.33
2018-03-31T02:51:44.218Z,92152.44
2018-03-31T02:54:14.037Z,92147.75
2018-03-31T02:56:42.649Z,92147.53
2018-03-31T02:59:10.982Z,92150.44
2018-03-31T03:01:39.374Z,92152.73
2018-03-31T03:04:07.749Z,92144.13
2018-03-31T03:06:38.044Z,92143.33
2018-03-31T03:09:08.045Z,92149.53
2018-03-31T03:11:36.492Z,92141.34
2018-03-31T03:14:05.924Z,92142.25
2018-03-31T03:16:37.857Z,92135.23
2018-03-31T03:19:08.305Z,92138.75
2018-03-31T03:21:36.589Z,92137.75
2018-03-31T03:24:04.819Z,92137.15
2018-03-31T03:26:34.534Z,92144.14
2018-03-31T03:29:03.720Z,92148.53
2018-03-31T03:31:34.713Z,92145.73
2018-03-31T03:34:02.964Z,92142.13
2018-03-31T03:36:31.226Z,92144.73
2018-03-31T03:39:01.230Z,92145.94
2018-03-31T03:41:31.024Z,92152.33
2018-03-31T03:43:59.260Z,92149.23
2018-03-31T03:46:30.322Z,92153.92
2018-03-31T03:49:02.190Z,92158.13
2018-03-31T03:51:30.432Z,92160.52
2018-03-31T03:53:58.622Z,92157.72
2018-03-31T03:56:26.902Z,92157.92
2018-03-31T03:58:55.206Z,92156.22
2018-03-31T04:01:23.541Z,92158.94
2018-03-31T04:03:51.838Z,92158.81
2018-03-31T04:06:23.609Z,92152.53
2018-03-31T04:08:51.852Z,92155.91
2018-03-31T04:11:20.110Z,92151.84
2018-03-31T04:13:48.450Z,92155.53
2018-03-31T04:16:16.740Z,92150.12
2018-03-31T04:18:44.910Z,92154.72
2018-03-31T04:21:13.202Z,92158.70
2018-03-31T04:23:41.445Z,92162.80
2018-03-31T04:26:09.809Z,92160.72
2018-03-31T04:28:40.050Z,92155.91
2018-03-31T04:31:08.413Z,92155.50
2018-03-31T04:33:36.645Z,92159.11
2018-03-31T04:36:04.896Z,92155.70
2018-03-31T04:38:33.161Z,92157.50
2018-03-31T04:41:01.375Z,92159.71
2018-03-31T04:43:29.852Z,92150.00
2018-03-31T04:45:58.150Z,92149.91
2018-03-31T04:48:26.425Z,92155.50
2018-03-31T04:50:54.698Z,92159.88
2018-03-31T04:53:22.957Z,92152.07
2018-03-31T04:55:51.202Z,92160.38
2018-03-31T04:58:19.388Z,92156.06
2018-03-31T05:00:49.200Z,92164.36
2018-03-31T05:03:17.490Z,92165.66
2018-03-31T05:05:45.758Z,92171.39
2018-03-31T05:08:13.998Z,92173.16
2018-03-31T05:10:42.278Z,92161.08
2018-03-31T05:13:10.528Z,92164.09
2018-03-31T05:15:38.784Z,92164.08
2018-03-31T05:18:07.047Z,92166.69
2018-03-31T05:20:36.722Z,92167.09
2018-03-31T05:23:04.998Z,92165.20
2018-03-31T05:25:33.318Z,92163.09
2018-03-31T05:28:03.570Z,92169.71
2018-03-31T05:30:31.837Z,92173.91
2018-03-31T05:33:00.094Z,92173.71
2018-03-31T05:35:28.321Z,92170.11
2018-03-31T05:37:58.328Z,92173.89
2018-03-31T05:40:26.573Z,92170.78
2018-03-31T05:42:54.794Z,92173.09
2018-03-31T05:45:24.503Z,92174.67
2018-03-31T05:47:56.192Z,92172.70
2018-03-31T05:50:24.370Z,92177.09
2018-03-31T05:52:52.620Z,92179.28
2018-03-31T05:55:20.828Z,92176.69
2018-03-31T05:57:54.702Z,92175.30
2018-03-31T06:00:22.926Z,92174.30
2018-03-31T06:02:51.126Z,92177.70
2018-03-31T06:05:19.392Z,92175.09
2018-03-31T06:07:47.652Z,92173.51
2018-03-31T06:10:15.921Z,92169.30
2018-03-31T06:12:44.145Z,92167.81
2018-03-31T06:15:12.414Z,92172.31
2018-03-31T06:17:41.664Z,92175.31
2018-03-31T06:20:09.998Z,92174.13
2018-03-31T06:22:38.226Z,92178.92
2018-03-31T06:25:06.434Z,92179.23
2018-03-31T06:27:34.623Z,92175.11
2018-03-31T06:30:02.891Z,92166.70
2018-03-31T06:32:31.167Z,92172.28
2018-03-31T06:34:59.534Z,92169.40
2018-03-31T06:37:27.862Z,92160.91
2018-03-31T06:39:56.077Z,92161.73
2018-03-31T06:42:24.356Z,92168.70
2018-03-31T06:44:52.568Z,92165.61
2018-03-31T06:47:21.277Z,92169.70
2018-03-31T06:49:49.730Z,92167.89
2018-03-31T06:52:17.978Z,92167.27
2018-03-31T06:54:46.178Z,92167.88
2018-03-31T06:57:14.430Z,92164.44
2018-03-31T06:59:42.620Z,92160.06
2018-03-31T07:02:10.794Z,92155.70
2018-03-31T07:04:39.093Z,92156.20
2018-03-31T07:07:07.353Z,92156.50
2018-03-31T07:09:36.938Z,92148.02
2018-03-31T07:12:05.179Z,92151.65
2018-03-31T07:14:33.887Z,92153.89
2018-03-31T07:17:02.105Z,92157.59
2018-03-31T07:19:30.344Z,92159.03
2018-03-31T07:21:59.993Z,92161.82
2018-03-31T07:24:28.254Z,92163.81
2018-03-31T07:26:56.465Z,92153.25
2018-03-31T07:29:24.832Z,92157.34
2018-03-31T07:31:53.165Z,92154.94
2018-03-31T07:34:21.354Z,92159.35
2018-03-31T07:36:50.626Z,92158.49
2018-03-31T07:39:18.838Z,92160.73
2018-03-31T07:41:48.251Z,92158.45
2018-03-31T07:44:16.416Z,92158.74
2018-03-31T07:46:45.950Z,92147.59
2018-03-31T07:49:15.298Z,92151.52
2018-03-31T07:51:44.736Z,92153.30
2018-03-31T07:54:13.841Z,92157.56
2018-03-31T07:56:42.351Z,92154.98
2018-03-31T07:59:11.839Z,92152.05
2018-03-31T08:01:40.013Z,92154.45
2018-03-31T08:04:08.267Z,92146.11
2018-03-31T08:06:38.070Z,92147.50
2018-03-31T08:09:06.297Z,92136.74
2018-03-31T08:11:35.981Z,92136.36
2018-03-31T08:14:05.468Z,92142.73
2018-03-31T08:16:33.715Z,92144.97
2018-03-31T08:19:02.110Z,92148.53
2018-03-31T08:21:30.300Z,92154.54
2018-03-31T08:23:58.511Z,92155.01
2018-03-31T08:26:27.073Z,92157.63
2018-03-31T08:28:55.341Z,92165.51
2018-03-31T08:31:25.175Z,92165.91
2018-03-31T08:33:54.601Z,92165.70
2018-03-31T08:36:23.971Z,92168.41
2018-03-31T08:38:52.186Z,92169.55
2018-03-31T08:41:20.411Z,92169.80
2018-03-31T08:43:48.680Z,92164.02
2018-03-31T08:46:16.929Z,92164.26
2018-03-31T08:48:47.629Z,92164.58
2018-03-31T08:51:15.905Z,92172.36
2018-03-31T08:53:44.119Z,92175.64
2018-03-31T08:56:12.422Z,92180.71
2018-03-31T08:58:43.054Z,92179.89
2018-03-31T09:01:11.316Z,92178.84
2018-03-31T09:03:39.556Z,92177.81
2018-03-31T09:06:07.808Z,92180.17
2018-03-31T09:08:36.573Z,92180.13
2018-03-31T09:11:04.889Z,92176.87
2018-03-31T09:13:31.843Z,92185.67
2018-03-31T09:16:01.363Z,92179.06
2018-03-31T09:18:30.410Z,92174.51
2018-03-31T09:20:58.726Z,92178.20
2018-03-31T09:23:29.632Z,92183.31
2018-03-31T09:25:59.032Z,92182.02
2018-03-31T09:28:27.342Z,92178.28
2018-03-31T09:30:57.808Z,92169.92
2018-03-31T09:33:26.843Z,92178.98
2018-03-31T09:35:55.062Z,92175.67
2018-03-31T09:38:23.658Z,92173.79
2018-03-31T09:40:53.374Z,92174.86
2018-03-31T09:43:22.803Z,92169.77
2018-03-31T09:45:52.276Z,92172.09
2018-03-31T09:48:20.531Z,92178.55
2018-03-31T09:50:50.122Z,92170.52
2018-03-31T09:53:18.398Z,92182.62
2018-03-31T09:55:47.914Z,92171.97
2018-03-31T09:58:16.159Z,92175.88
2018-03-31T10:00:44.492Z,92166.67
2018-03-31T10:03:14.331Z,92170.85
2018-03-31T10:05:42.610Z,92181.52
2018-03-31T10:08:09.556Z,92182.54
2018-03-31T10:10:38.951Z,92176.23
2018-03-31T10:13:08.505Z,92187.98
2018-03-31T10:15:36.825Z,92178.34
2018-03-31T10:18:05.057Z,92175.52
2018-03-31T10:20:33.301Z,92174.92
2018-03-31T10:23:01.564Z,92169.90
2018-03-31T10:25:29.960Z,92175.73
2018-03-31T10:27:58.181Z,92170.23
2018-03-31T10:30:26.435Z,92165.88
2018-03-31T10:32:55.985Z,92171.58
2018-03-31T10:35:24.237Z,92167.73
2018-03-31T10:37:52.731Z,92164.80
2018-03-31T10:40:21.009Z,92166.95
2018-03-31T10:42:49.216Z,92165.27
2018-03-31T10:45:18.888Z,92170.02
2018-03-31T10:47:47.164Z,92168.06
2018-03-31T10:50:16.737Z,92172.64
2018-03-31T10:52:45.045Z,92170.32
2018-03-31T10:55:13.261Z,92169.61
2018-03-31T10:57:42.730Z,92169.20
2018-03-31T11:00:10.975Z,92166.14
2018-03-31T11:02:39.243Z,92166.42
2018-03-31T11:05:07.470Z,92170.72
2018-03-31T11:07:35.745Z,92176.50
2018-03-31T11:10:03.970Z,92169.77
2018-03-31T11:12:32.224Z,92169.70
2018-03-31T11:15:00.419Z,92169.31
2018-03-31T11:17:28.683Z,92164.91
2018-03-31T11:19:57.708Z,92163.00
2018-03-31T11:22:25.937Z,92170.09
2018-03-31T11:24:54.226Z,92165.55
2018-03-31T11:27:23.597Z,92166.97
2018-03-31T11:29:51.833Z,92159.17
2018-03-31T11:32:20.748Z,92165.00
2018-03-31T11:34:48.992Z,92151.97
2018-03-31T11:37:17.198Z,92151.56
2018-03-31T11:39:45.530Z,92155.53
2018-03-31T11:42:13.817Z,92150.64
2018-03-31T11:44:42.109Z,92157.55
2018-03-31T11:47:10.363Z,92155.56
2018-03-31T11:49:38.598Z,92150.37
2018-03-31T11:52:06.852Z,92157.58
2018-03-31T11:54:35.095Z,92160.08
2018-03-31T11:57:03.340Z,92161.16
2018-03-31T11:59:31.645Z,92156.61
2018-03-31T12:02:01.075Z,92160.89
2018-03-31T12:04:30.483Z,92158.81
2018-03-31T12:06:58.772Z,92155.90
2018-03-31T12:09:28.760Z,92155.47
2018-03-31T12:11:57.068Z,92152.94
2018-03-31T12:14:26.469Z,92156.24
2018-03-31T12:16:54.739Z,92154.01
2018-03-31T12:19:22.960Z,92162.84
2018-03-31T12:21:51.210Z,92153.52
2018-03-31T12:24:20.433Z,92154.96
2018-03-31T12:26:49.718Z,92149.14
2018-03-31T12:29:17.915Z,92143.09
2018-03-31T12:31:46.128Z,92142.03
2018-03-31T12:34:14.418Z,92136.04
2018-03-31T12:36:42.785Z,92138.11
2018-03-31T12:39:10.978Z,92134.83
2018-03-31T12:41:39.329Z,92138.89
2018-03-31T12:44:06.328Z,92142.50
2018-03-31T12:46:35.613Z,92128.72
2018-03-31T12:49:04.949Z,92135.22
2018-03-31T12:51:33.125Z,92137.47
2018-03-31T12:54:01.392Z,92128.92
2018-03-31T12:56:29.663Z,92131.56
2018-03-31T12:58:58.932Z,92127.41
2018-03-31T13:01:27.173Z,92128.37
2018-03-31T13:03:55.412Z,92123.98
2018-03-31T13:06:23.656Z,92120.03
2018-03-31T13:08:51.908Z,92129.23
2018-03-31T13:11:20.187Z,92128.03
2018-03-31T13:13:49.574Z,92125.49
2018-03-31T13:16:17.867Z,92123.75
2018-03-31T13:18:46.197Z,92125.89
2018-03-31T13:21:15.766Z,92129.63
2018-03-31T13:23:44.023Z,92125.12
2018-03-31T13:26:12.229Z,92129.86
2018-03-31T13:28:41.733Z,92125.91
2018-03-31T13:31:11.082Z,92124.44
2018-03-31T13:33:40.846Z,92122.95
2018-03-31T13:36:09.128Z,92126.09
2018-03-31T13:38:37.445Z,92126.50
2018-03-31T13:41:05.711Z,92119.80
2018-03-31T13:43:34.005Z,92114.36
2018-03-31T13:46:03.429Z,92118.14
2018-03-31T13:48:31.754Z,92125.14
2018-03-31T13:51:01.354Z,92117.33
2018-03-31T13:53:30.642Z,92121.28
2018-03-31T13:55:59.903Z,92117.60
2018-03-31T13:58:28.191Z,92115.87
2018-03-31T14:00:57.807Z,92106.87
2018-03-31T14:03:26.147Z,92117.74
2018-03-31T14:05:54.357Z,92112.92
2018-03-31T14:08:23.954Z,92116.88
2018-03-31T14:10:53.338Z,92115.22
2018-03-31T14:13:21.728Z,92110.66
2018-03-31T14:15:49.978Z,92113.48
2018-03-31T14:18:19.354Z,92116.14
2018-03-31T14:20:47.805Z,92115.13
2018-03-31T14:23:16.609Z,92133.22
2018-03-31T14:25:44.853Z,92137.62
2018-03-31T14:28:13.103Z,92141.34
2018-03-31T14:30:41.295Z,92137.77
2018-03-31T14:33:10.882Z,92133.63
2018-03-31T14:35:39.139Z,92134.34
2018-03-31T14:38:07.455Z,92135.12
2018-03-31T14:40:35.690Z,92134.74
2018-03-31T14:43:03.935Z,92133.95
2018-03-31T14:45:32.164Z,92140.47
2018-03-31T14:48:00.373Z,92130.69
2018-03-31T14:50:28.752Z,92136.34
2018-03-31T14:52:57.000Z,92134.25
2018-03-31T14:55:25.580Z,92130.99
2018-03-31T14:57:55.752Z,92138.08
2018-03-31T15:00:23.990Z,92131.73
2018-03-31T15:02:54.314Z,92129.16
2018-03-31T15:05:22.598Z,92135.12
2018-03-31T15:07:50.877Z,92127.97
2018-03-31T15:10:19.179Z,92130.83
2018-03-31T15:12:47.430Z,92130.20
2018-03-31T15:15:17.141Z,92134.09
2018-03-31T15:17:45.386Z,92132.84
2018-03-31T15:20:13.597Z,92130.66
2018-03-31T15:22:43.015Z,92132.09
2018-03-31T15:25:11.258Z,92138.38
2018-03-31T15:27:39.511Z,92147.55
2018-03-31T15:30:07.746Z,92134.18
2018-03-31T15:32:36.111Z,92134.60
2018-03-31T15:35:04.373Z,92139.56
2018-03-31T15:37:33.706Z,92138.81
2018-03-31T15:40:01.929Z,92139.77
2018-03-31T15:42:31.691Z,92150.98
2018-03-31T15:45:02.026Z,92142.37
2018-03-31T15:47:33.807Z,92146.17
2018-03-31T15:50:04.791Z,92142.75
2018-03-31T15:52:33.053Z,92154.27
2018-03-31T15:55:02.877Z,92151.56
2018-03-31T15:57:31.097Z,92162.43
2018-03-31T15:59:59.452Z,92159.38
2018-03-31T16:02:27.709Z,92162.14
2018-03-31T16:04:56.101Z,92166.95
2018-03-31T16:07:24.462Z,92170.38
2018-03-31T16:09:52.701Z,92173.84
2018-03-31T16:12:22.869Z,92170.23
2018-03-31T16:14:51.048Z,92172.43
2018-03-31T16:17:19.268Z,92170.05
2018-03-31T16:19:49.116Z,92173.68
2018-03-31T16:22:17.353Z,92177.69
2018-03-31T16:24:47.548Z,92178.66
2018-03-31T16:27:16.862Z,92182.16
2018-03-31T16:29:45.182Z,92182.11
2018-03-31T16:32:14.960Z,92188.43
2018-03-31T16:34:44.920Z,92196.39
2018-03-31T16:37:13.123Z,92192.31
2018-03-31T16:39:43.154Z,92203.66
2018-03-31T16:42:14.929Z,92204.58
2018-03-31T16:44:43.176Z,92204.58
2018-03-31T16:47:11.507Z,92209.32
2018-03-31T16:49:40.980Z,92207.68
2018-03-31T16:52:09.178Z,92209.62
2018-03-31T16:54:37.411Z,92215.86
2018-03-31T16:57:05.681Z,92217.66
2018-03-31T16:59:35.437Z,92217.84
2018-03-31T17:02:03.697Z,92221.77
2018-03-31T17:04:33.186Z,92220.72
2018-03-31T17:07:03.985Z,92229.38
2018-03-31T17:09:33.388Z,92230.19
2018-03-31T17:12:01.644Z,92239.02
2018-03-31T17:14:31.529Z,92240.04
2018-03-31T17:16:59.768Z,92244.38
2018-03-31T17:19:28.028Z,92248.52
2018-03-31T17:21:56.552Z,92242.04
2018-03-31T17:24:24.982Z,92247.06
2018-03-31T17:26:53.238Z,92251.75
2018-03-31T17:29:21.923Z,92255.55
2018-03-31T17:31:50.161Z,92250.67
2018-03-31T17:34:18.483Z,92258.53
2018-03-31T17:36:46.798Z,92259.83
2018-03-31T17:39:15.047Z,92261.84
2018-03-31T17:41:43.301Z,92269.53
2018-03-31T17:44:11.533Z,92273.23
2018-03-31T17:46:41.478Z,92270.80
2018-03-31T17:49:09.769Z,92275.61
2018-03-31T17:51:41.520Z,92277.82
2018-03-31T17:54:09.799Z,92285.39
2018-03-31T17:56:38.124Z,92288.47
2018-03-31T17:59:06.402Z,92291.34
2018-03-31T18:01:34.644Z,92294.63
2018-03-31T18:04:02.943Z,92299.14
2018-03-31T18:06:36.481Z,92301.42
2018-03-31T18:09:04.721Z,92308.38
2018-03-31T18:11:33.230Z,92301.19
2018-03-31T18:14:02.949Z,92318.11
2018-03-31T18:16:31.682Z,92312.66
2018-03-31T18:18:59.974Z,92321.74
2018-03-31T18:21:30.260Z,92324.56
2018-03-31T18:23:58.652Z,92325.20
2018-03-31T18:26:26.888Z,92329.67
2018-03-31T18:28:56.846Z,92331.67
2018-03-31T18:31:25.091Z,92336.41
2018-03-31T18:33:57.408Z,92333.64
2018-03-31T18:36:27.357Z,92337.92
2018-03-31T18:38:55.732Z,92347.77
2018-03-31T18:41:23.986Z,92353.64
2018-03-31T18:43:55.892Z,92357.17
2018-03-31T18:46:24.196Z,92356.95
2018-03-31T18:48:52.557Z,92358.55
2018-03-31T18:51:20.965Z,92361.97
2018-03-31T18:53:49.198Z,92361.06
2018-03-31T18:56:17.455Z,92373.58
2018-03-31T18:58:49.154Z,92374.71
2018-03-31T19:01:17.469Z,92383.56
2018-03-31T19:03:47.293Z,92387.20
2018-03-31T19:06:15.472Z,92387.41
2018-03-31T19:08:43.726Z,92390.44
2018-03-31T19:11:13.522Z,92391.05
2018-03-31T19:13:43.779Z,92396.17
2018-03-31T19:16:12.045Z,92400.28
2018-03-31T19:18:40.365Z,92406.73
2018-03-31T19:21:08.600Z,92403.93
2018-03-31T19:23:36.821Z,92403.41
2018-03-31T19:26:05.187Z,92415.36
2018-03-31T19:28:33.416Z,92408.13
2018-03-31T19:31:01.790Z,92411.04
2018-03-31T19:33:30.058Z,92415.16
2018-03-31T19:36:04.338Z,92415.34
2018-03-31T19:38:34.151Z,92417.78
2018-03-31T19:41:02.405Z,92417.40
2018-03-31T19:43:32.245Z,92422.39
2018-03-31T19:46:00.473Z,92434.02
2018-03-31T19:48:32.414Z,92437.45
2018-03-31T19:51:02.525Z,92439.80
2018-03-31T19:53:32.383Z,92443.17
2018-03-31T19:56:00.604Z,92443.34
2018-03-31T19:58:30.818Z,92443.92
2018-03-31T20:00:59.062Z,92449.16
2018-03-31T20:03:28.940Z,92451.34
2018-03-31T20:05:57.140Z,92458.07
2018-03-31T20:08:25.362Z,92466.75
2018-03-31T20:10:53.584Z,92468.93
2018-03-31T20:13:21.823Z,92465.63
2018-03-31T20:15:51.635Z,92474.89
2018-03-31T20:18:22.084Z,92475.53
2018-03-31T20:20:52.454Z,92469.99
2018-03-31T20:23:22.849Z,92472.23
2018-03-31T20:25:51.227Z,92471.55
2018-03-31T20:28:25.584Z,92475.58
2018-03-31T20:30:54.229Z,92472.77
2018-03-31T20:33:22.470Z,92480.84
2018-03-31T20:35:52.842Z,92487.03
2018-03-31T20:38:23.217Z,92490.09
2018-03-31T20:40:53.451Z,92488.14
2018-03-31T20:43:21.734Z,92485.27
2018-03-31T20:45:52.070Z,92489.04
2018-03-31T20:48:22.377Z,92486.77
2018-03-31T20:50:54.188Z,92483.58
2018-03-31T20:53:24.697Z,92483.98
2018-03-31T20:55:54.938Z,92486.67
2018-03-31T20:58:23.161Z,92489.17
2018-03-31T21:00:55.092Z,92489.77
2018-03-31T21:03:24.984Z,92489.80
2018-03-31T21:05:54.781Z,92490.61
2018-03-31T21:08:24.707Z,92492.77
2018-03-31T21:10:52.970Z,92494.14
2018-03-31T21:13:21.450Z,92499.78
2018-03-31T21:15:49.761Z,92500.81
2018-03-31T21:18:19.969Z,92502.56
2018-03-31T21:20:50.187Z,92510.50
2018-03-31T21:23:22.045Z,92506.65
2018-03-31T21:25:50.306Z,92514.56
2018-03-31T21:28:18.541Z,92518.99
2018-03-31T21:30:46.843Z,92524.36
2018-03-31T21:33:15.084Z,92526.84
2018-03-31T21:35:43.425Z,92527.72
2018-03-31T21:38:13.007Z,92529.72
2018-03-31T21:40:41.962Z,92529.67
2018-03-31T21:43:10.197Z,92536.98
2018-03-31T21:45:41.994Z,92530.47
2018-03-31T21:48:10.339Z,92533.57
2018-03-31T21:50:38.581Z,92533.30
2018-03-31T21:53:06.875Z,92537.15
2018-03-31T21:55:35.081Z,92541.91
2018-03-31T21:58:05.569Z,92537.19
2018-03-31T22:00:35.533Z,92542.20
2018-03-31T22:03:05.341Z,92542.42
2018-03-31T22:05:33.603Z,92548.13
2018-03-31T22:08:02.448Z,92551.41
2018-03-31T22:10:31.038Z,92554.48
2018-03-31T22:13:07.055Z,92555.44
2018-03-31T22:15:41.680Z,92550.27
2018-03-31T22:18:11.641Z,92560.27
2018-03-31T22:20:43.504Z,92555.31
2018-03-31T22:23:13.727Z,92559.80
2018-03-31T22:25:42.005Z,92560.61
2018-03-31T22:28:10.285Z,92563.60
2018-03-31T22:30:38.537Z,92563.29
2018-03-31T22:33:06.830Z,92567.66
2018-03-31T22:35:35.077Z,92574.03
2018-03-31T22:38:03.376Z,92574.88
2018-03-31T22:40:31.629Z,92576.11
2018-03-31T22:42:59.905Z,92575.35
2018-03-31T22:45:28.138Z,92581.02
2018-03-31T22:47:56.464Z,92584.61
2018-03-31T22:50:24.730Z,92577.67
2018-03-31T22:52:52.999Z,92585.22
2018-03-31T22:55:21.214Z,92585.33
2018-03-31T22:57:49.790Z,92583.77
2018-03-31T23:00:18.048Z,92583.53
2018-03-31T23:02:46.284Z,92584.25
2018-03-31T23:05:14.659Z,92584.12
2018-03-31T23:07:46.834Z,92587.85
2018-03-31T23:10:15.148Z,92584.75
2018-03-31T23:12:44.086Z,92592.94
2018-03-31T23:15:12.415Z,92591.34
2018-03-31T23:17:40.758Z,92590.11
2018-03-31T23:20:09.250Z,92594.56
2018-03-31T23:22:37.573Z,92594.56
2018-03-31T23:25:05.913Z,92595.53
2018-03-31T23:27:34.381Z,92595.04
2018-03-31T23:30:04.517Z,92591.16
2018-03-31T23:32:32.870Z,92588.15
2018-03-31T23:35:02.960Z,92599.09
2018-03-31T23:37:33.289Z,92600.58
2018-03-31T23:40:01.562Z,92601.75
2018-03-31T23:42:29.779Z,92602.98
2018-03-31T23:44:58.120Z,92601.23
2018-03-31T23:47:29.920Z,92605.50
2018-03-31T23:49:58.183Z,92596.55
2018-03-31T23:52:26.605Z,92607.19
2018-03-31T23:54:55.528Z,92609.16
2018-03-31T23:57:23.745Z,92612.48
2018-03-31T23:59:52.112Z,92612.80
